sensor_id;sensor_type;location;lat;lon;timestamp;pressure;altitude;pressure_sealevel;temperature;humidity
60854;BME280;48554;50.766;2.900;2022-10-23T00:01:40;100599.63;;;19.29;64.71
60854;BME280;48554;50.766;2.900;2022-10-23T00:04:13;100591.59;;;19.29;64.77
60854;BME280;48554;50.766;2.900;2022-10-23T00:06:34;100594.28;;;19.29;64.71
60854;BME280;48554;50.766;2.900;2022-10-23T00:08:54;100597.25;;;19.27;64.92
60854;BME280;48554;50.766;2.900;2022-10-23T00:11:18;100602.31;;;19.29;64.74
60854;BME280;48554;50.766;2.900;2022-10-23T00:13:39;100595.59;;;19.26;64.79
60854;BME280;48554;50.766;2.900;2022-10-23T00:15:59;100589.44;;;19.25;64.82
60854;BME280;48554;50.766;2.900;2022-10-23T00:18:20;100586.75;;;19.25;64.91
60854;BME280;48554;50.766;2.900;2022-10-23T00:20:40;100575.44;;;19.23;64.87
60854;BME280;48554;50.766;2.900;2022-10-23T00:23:00;100575.44;;;19.23;64.98
60854;BME280;48554;50.766;2.900;2022-10-23T00:25:21;100580.03;;;19.23;64.73
60854;BME280;48554;50.766;2.900;2022-10-23T00:27:41;100578.97;;;19.24;64.83
60854;BME280;48554;50.766;2.900;2022-10-23T00:30:03;100587.28;;;19.22;64.78
60854;BME280;48554;50.766;2.900;2022-10-23T00:32:24;100579.22;;;19.22;64.83
60854;BME280;48554;50.766;2.900;2022-10-23T00:34:44;100591.00;;;19.21;64.78
60854;BME280;48554;50.766;2.900;2022-10-23T00:37:04;100582.16;;;19.21;64.77
60854;BME280;48554;50.766;2.900;2022-10-23T00:39:25;100575.19;;;19.20;64.84
60854;BME280;48554;50.766;2.900;2022-10-23T00:41:45;100577.88;;;19.20;64.79
60854;BME280;48554;50.766;2.900;2022-10-23T00:46:48;100581.34;;;19.20;64.77
60854;BME280;48554;50.766;2.900;2022-10-23T00:49:09;100575.97;;;19.20;64.90
60854;BME280;48554;50.766;2.900;2022-10-23T00:51:34;100575.19;;;19.20;64.45
60854;BME280;48554;50.766;2.900;2022-10-23T00:53:57;100574.38;;;19.19;64.70
60854;BME280;48554;50.766;2.900;2022-10-23T00:56:19;100565.78;;;19.17;64.68
60854;BME280;48554;50.766;2.900;2022-10-23T00:58:39;100560.41;;;19.17;64.60
60854;BME280;48554;50.766;2.900;2022-10-23T01:00:59;100555.84;;;19.18;64.68
60854;BME280;48554;50.766;2.900;2022-10-23T01:03:22;100553.41;;;19.16;64.68
60854;BME280;48554;50.766;2.900;2022-10-23T01:05:49;100544.28;;;19.17;64.87
60854;BME280;48554;50.766;2.900;2022-10-23T01:08:19;100547.78;;;19.18;64.78
60854;BME280;48554;50.766;2.900;2022-10-23T01:10:57;100543.22;;;19.18;64.70
60854;BME280;48554;50.766;2.900;2022-10-23T01:24:23;100535.69;;;19.15;64.51
60854;BME280;48554;50.766;2.900;2022-10-23T01:26:59;100537.28;;;19.16;64.60
60854;BME280;48554;50.766;2.900;2022-10-23T01:32:18;100524.94;;;19.15;64.65
60854;BME280;48554;50.766;2.900;2022-10-23T01:34:48;100517.97;;;19.14;64.46
60854;BME280;48554;50.766;2.900;2022-10-23T01:37:12;100512.59;;;19.14;64.36
60854;BME280;48554;50.766;2.900;2022-10-23T01:39:37;100510.16;;;19.13;64.60
60854;BME280;48554;50.766;2.900;2022-10-23T01:42:05;100511.50;;;19.10;64.87
60854;BME280;48554;50.766;2.900;2022-10-23T01:44:35;100505.03;;;19.11;64.60
60854;BME280;48554;50.766;2.900;2022-10-23T01:46:57;100502.34;;;19.11;64.79
60854;BME280;48554;50.766;2.900;2022-10-23T01:49:19;100497.53;;;19.08;65.03
60854;BME280;48554;50.766;2.900;2022-10-23T01:51:45;100500.22;;;19.08;65.03
60854;BME280;48554;50.766;2.900;2022-10-23T01:54:09;100482.50;;;19.07;65.32
60854;BME280;48554;50.766;2.900;2022-10-23T01:56:32;100490.56;;;19.07;65.50
60854;BME280;48554;50.766;2.900;2022-10-23T01:58:56;100486.78;;;19.03;65.34
60854;BME280;48554;50.766;2.900;2022-10-23T02:01:19;100491.59;;;19.01;65.71
60854;BME280;48554;50.766;2.900;2022-10-23T02:03:42;100482.19;;;19.03;65.36
60854;BME280;48554;50.766;2.900;2022-10-23T02:06:03;100488.34;;;18.99;65.30
60854;BME280;48554;50.766;2.900;2022-10-23T02:08:23;100465.81;;;18.95;64.86
60854;BME280;48554;50.766;2.900;2022-10-23T02:10:49;100467.66;;;18.94;65.59
60854;BME280;48554;50.766;2.900;2022-10-23T02:13:16;100464.19;;;18.94;65.11
60854;BME280;48554;50.766;2.900;2022-10-23T02:15:52;100468.19;;;18.91;65.01
60854;BME280;48554;50.766;2.900;2022-10-23T02:18:43;100468.44;;;18.90;64.96
60854;BME280;48554;50.766;2.900;2022-10-23T02:21:09;100455.03;;;18.90;65.24
60854;BME280;48554;50.766;2.900;2022-10-23T02:23:52;100465.25;;;18.88;64.70
60854;BME280;48554;50.766;2.900;2022-10-23T02:26:27;100449.16;;;18.88;64.68
60854;BME280;48554;50.766;2.900;2022-10-23T02:28:58;100452.88;;;18.87;64.62
60854;BME280;48554;50.766;2.900;2022-10-23T02:31:21;100444.28;;;18.85;64.76
60854;BME280;48554;50.766;2.900;2022-10-23T02:33:43;100430.06;;;18.84;64.69
60854;BME280;48554;50.766;2.900;2022-10-23T02:36:05;100425.25;;;18.86;64.92
60854;BME280;48554;50.766;2.900;2022-10-23T02:40:50;100422.81;;;18.85;64.76
60854;BME280;48554;50.766;2.900;2022-10-23T02:43:22;100420.13;;;18.90;64.86
60854;BME280;48554;50.766;2.900;2022-10-23T02:45:55;100411.03;;;18.91;64.83
60854;BME280;48554;50.766;2.900;2022-10-23T02:48:22;100408.88;;;18.93;65.27
60854;BME280;48554;50.766;2.900;2022-10-23T02:53:17;100405.09;;;18.84;64.85
60854;BME280;48554;50.766;2.900;2022-10-23T02:56:00;100391.69;;;18.89;64.85
60854;BME280;48554;50.766;2.900;2022-10-23T03:00:54;100385.78;;;18.92;64.57
60854;BME280;48554;50.766;2.900;2022-10-23T03:03:23;100384.72;;;18.93;64.54
60854;BME280;48554;50.766;2.900;2022-10-23T03:05:45;100382.06;;;18.93;64.55
60854;BME280;48554;50.766;2.900;2022-10-23T03:08:07;100372.09;;;18.93;64.67
60854;BME280;48554;50.766;2.900;2022-10-23T03:10:28;100371.31;;;18.93;64.49
60854;BME280;48554;50.766;2.900;2022-10-23T03:12:49;100369.69;;;18.92;64.49
60854;BME280;48554;50.766;2.900;2022-10-23T03:15:10;100371.84;;;18.95;64.40
60854;BME280;48554;50.766;2.900;2022-10-23T03:17:30;100371.84;;;18.95;64.34
60854;BME280;48554;50.766;2.900;2022-10-23T03:19:51;100367.53;;;18.94;64.39
60854;BME280;48554;50.766;2.900;2022-10-23T03:22:11;100365.13;;;18.92;64.38
60854;BME280;48554;50.766;2.900;2022-10-23T03:24:31;100369.69;;;18.92;64.42
60854;BME280;48554;50.766;2.900;2022-10-23T03:26:52;100356.53;;;18.90;64.47
60854;BME280;48554;50.766;2.900;2022-10-23T03:29:12;100362.72;;;18.91;64.53
60854;BME280;48554;50.766;2.900;2022-10-23T03:31:32;100353.56;;;18.92;64.53
60854;BME280;48554;50.766;2.900;2022-10-23T03:33:52;100341.25;;;18.91;64.45
60854;BME280;48554;50.766;2.900;2022-10-23T03:36:13;100334.25;;;18.90;64.45
60854;BME280;48554;50.766;2.900;2022-10-23T03:38:33;100332.63;;;18.89;64.45
60854;BME280;48554;50.766;2.900;2022-10-23T03:40:53;100336.13;;;18.89;64.37
60854;BME280;48554;50.766;2.900;2022-10-23T03:43:13;100340.69;;;18.89;64.47
60854;BME280;48554;50.766;2.900;2022-10-23T03:45:34;100336.13;;;18.89;64.37
60854;BME280;48554;50.766;2.900;2022-10-23T03:47:54;100335.31;;;18.89;64.44
60854;BME280;48554;50.766;2.900;2022-10-23T03:50:14;100329.16;;;18.88;64.43
60854;BME280;48554;50.766;2.900;2022-10-23T03:52:35;100327.53;;;18.87;64.40
60854;BME280;48554;50.766;2.900;2022-10-23T03:54:55;100324.03;;;18.87;64.49
60854;BME280;48554;50.766;2.900;2022-10-23T03:57:15;100316.78;;;18.87;64.32
60854;BME280;48554;50.766;2.900;2022-10-23T03:59:36;100319.22;;;18.89;64.39
60854;BME280;48554;50.766;2.900;2022-10-23T04:01:56;100314.94;;;18.88;64.41
60854;BME280;48554;50.766;2.900;2022-10-23T04:04:16;100309.03;;;18.86;64.42
60854;BME280;48554;50.766;2.900;2022-10-23T04:06:37;100315.72;;;18.88;64.40
60854;BME280;48554;50.766;2.900;2022-10-23T04:08:57;100320.31;;;18.88;64.23
60854;BME280;48554;50.766;2.900;2022-10-23T04:11:17;100310.06;;;18.85;64.35
60854;BME280;48554;50.766;2.900;2022-10-23T04:13:38;100313.59;;;18.85;64.49
60854;BME280;48554;50.766;2.900;2022-10-23T04:15:58;100320.00;;;18.84;64.50
60854;BME280;48554;50.766;2.900;2022-10-23T04:18:18;100308.47;;;18.84;64.41
60854;BME280;48554;50.766;2.900;2022-10-23T04:20:39;100308.47;;;18.84;64.41
60854;BME280;48554;50.766;2.900;2022-10-23T04:22:59;100303.91;;;18.84;64.44
60854;BME280;48554;50.766;2.900;2022-10-23T04:25:19;100296.94;;;18.83;64.36
60854;BME280;48554;50.766;2.900;2022-10-23T04:27:39;100283.53;;;18.83;64.35
60854;BME280;48554;50.766;2.900;2022-10-23T04:30:00;100303.13;;;18.84;64.33
60854;BME280;48554;50.766;2.900;2022-10-23T04:32:20;100293.47;;;18.83;64.37
60854;BME280;48554;50.766;2.900;2022-10-23T04:34:41;100291.56;;;18.83;64.42
60854;BME280;48554;50.766;2.900;2022-10-23T04:37:01;100296.41;;;18.81;64.42
60854;BME280;48554;50.766;2.900;2022-10-23T04:39:21;100292.91;;;18.80;64.29
60854;BME280;48554;50.766;2.900;2022-10-23T04:41:41;100287.56;;;18.80;64.48
60854;BME280;48554;50.766;2.900;2022-10-23T04:44:02;100279.50;;;18.80;64.48
60854;BME280;48554;50.766;2.900;2022-10-23T04:46:22;100276.28;;;18.84;64.29
60854;BME280;48554;50.766;2.900;2022-10-23T04:48:42;100268.47;;;18.82;64.31
60854;BME280;48554;50.766;2.900;2022-10-23T04:51:04;100272.25;;;18.81;64.35
60854;BME280;48554;50.766;2.900;2022-10-23T04:53:25;100269.81;;;18.79;64.44
60854;BME280;48554;50.766;2.900;2022-10-23T04:55:51;100263.91;;;18.77;64.40
60854;BME280;48554;50.766;2.900;2022-10-23T04:58:11;100262.06;;;18.78;64.49
60854;BME280;48554;50.766;2.900;2022-10-23T05:00:32;100272.25;;;18.76;64.53
60854;BME280;48554;50.766;2.900;2022-10-23T05:02:52;100261.19;;;18.72;64.57
60854;BME280;48554;50.766;2.900;2022-10-23T05:05:12;100247.22;;;18.70;64.53
60854;BME280;48554;50.766;2.900;2022-10-23T05:07:33;100247.22;;;18.65;64.61
60854;BME280;48554;50.766;2.900;2022-10-23T05:09:54;100241.34;;;18.63;64.78
60854;BME280;48554;50.766;2.900;2022-10-23T05:12:14;100239.47;;;18.64;64.79
60854;BME280;48554;50.766;2.900;2022-10-23T05:14:34;100242.41;;;18.62;64.82
60854;BME280;48554;50.766;2.900;2022-10-23T05:17:10;100240.81;;;18.61;64.82
60854;BME280;48554;50.766;2.900;2022-10-23T05:19:37;100237.03;;;18.62;64.83
60854;BME280;48554;50.766;2.900;2022-10-23T05:22:00;100227.66;;;18.59;64.98
60854;BME280;48554;50.766;2.900;2022-10-23T05:24:24;100231.41;;;18.58;64.90
60854;BME280;48554;50.766;2.900;2022-10-23T05:26:45;100216.38;;;18.57;64.93
60854;BME280;48554;50.766;2.900;2022-10-23T05:29:05;100211.28;;;18.56;64.86
60854;BME280;48554;50.766;2.900;2022-10-23T05:31:26;100202.69;;;18.54;65.03
60854;BME280;48554;50.766;2.900;2022-10-23T05:33:46;100209.94;;;18.53;64.99
60854;BME280;48554;50.766;2.900;2022-10-23T05:36:07;100208.06;;;18.54;64.89
60854;BME280;48554;50.766;2.900;2022-10-23T05:38:31;100207.25;;;18.53;65.03
60854;BME280;48554;50.766;2.900;2022-10-23T05:40:52;100198.69;;;18.51;64.89
60854;BME280;48554;50.766;2.900;2022-10-23T05:43:13;100189.81;;;18.51;64.98
60854;BME280;48554;50.766;2.900;2022-10-23T05:45:33;100198.69;;;18.51;65.02
60854;BME280;48554;50.766;2.900;2022-10-23T05:47:53;100183.91;;;18.49;64.94
60854;BME280;48554;50.766;2.900;2022-10-23T05:50:14;100189.28;;;18.49;65.01
60854;BME280;48554;50.766;2.900;2022-10-23T05:52:34;100183.09;;;18.48;65.22
60854;BME280;48554;50.766;2.900;2022-10-23T05:54:54;100191.44;;;18.47;65.04
60854;BME280;48554;50.766;2.900;2022-10-23T05:57:15;100194.38;;;18.45;64.89
60854;BME280;48554;50.766;2.900;2022-10-23T05:59:35;100173.69;;;18.46;64.83
60854;BME280;48554;50.766;2.900;2022-10-23T06:01:55;100171.84;;;18.46;64.89
60854;BME280;48554;50.766;2.900;2022-10-23T06:04:16;100167.00;;;18.43;64.87
60854;BME280;48554;50.766;2.900;2022-10-23T06:06:36;100157.34;;;18.42;64.87
60854;BME280;48554;50.766;2.900;2022-10-23T06:08:56;100161.13;;;18.41;64.86
60854;BME280;48554;50.766;2.900;2022-10-23T06:11:17;100170.50;;;18.44;64.77
60854;BME280;48554;50.766;2.900;2022-10-23T06:13:37;100169.97;;;18.42;64.83
60854;BME280;48554;50.766;2.900;2022-10-23T06:15:58;100165.16;;;18.44;64.78
60854;BME280;48554;50.766;2.900;2022-10-23T06:18:18;100157.59;;;18.46;64.95
60854;BME280;48554;50.766;2.900;2022-10-23T06:20:39;100161.91;;;18.52;64.96
60854;BME280;48554;50.766;2.900;2022-10-23T06:22:59;100159.78;;;18.49;64.85
60854;BME280;48554;50.766;2.900;2022-10-23T06:25:19;100166.19;;;18.48;64.62
60854;BME280;48554;50.766;2.900;2022-10-23T06:27:40;100158.94;;;18.48;64.56
60854;BME280;48554;50.766;2.900;2022-10-23T06:30:00;100159.25;;;18.52;64.88
60854;BME280;48554;50.766;2.900;2022-10-23T06:32:20;100157.63;;;18.51;64.66
60854;BME280;48554;50.766;2.900;2022-10-23T06:34:40;100155.47;;;18.58;64.56
60854;BME280;48554;50.766;2.900;2022-10-23T06:37:01;100155.22;;;18.59;64.44
60854;BME280;48554;50.766;2.900;2022-10-23T06:39:21;100165.69;;;18.61;64.56
60854;BME280;48554;50.766;2.900;2022-10-23T06:41:41;100167.03;;;18.64;64.34
60854;BME280;48554;50.766;2.900;2022-10-23T06:44:01;100157.09;;;18.64;64.25
60854;BME280;48554;50.766;2.900;2022-10-23T06:46:22;100159.78;;;18.64;64.40
60854;BME280;48554;50.766;2.900;2022-10-23T06:48:42;100165.69;;;18.61;64.50
60854;BME280;48554;50.766;2.900;2022-10-23T06:51:07;100178.81;;;18.63;64.55
60854;BME280;48554;50.766;2.900;2022-10-23T06:53:28;100182.31;;;18.63;64.46
60854;BME280;48554;50.766;2.900;2022-10-23T06:55:48;100194.66;;;18.64;64.53
60854;BME280;48554;50.766;2.900;2022-10-23T06:58:08;100197.34;;;18.64;64.41
60854;BME280;48554;50.766;2.900;2022-10-23T07:00:28;100205.38;;;18.64;64.42
60854;BME280;48554;50.766;2.900;2022-10-23T07:02:50;100207.28;;;18.64;64.59
60854;BME280;48554;50.766;2.900;2022-10-23T07:05:10;100202.69;;;18.64;64.36
60854;BME280;48554;50.766;2.900;2022-10-23T07:07:30;100195.72;;;18.63;64.43
60854;BME280;48554;50.766;2.900;2022-10-23T07:09:51;100192.50;;;18.66;64.66
60854;BME280;48554;50.766;2.900;2022-10-23T07:12:11;100202.97;;;18.68;64.46
60854;BME280;48554;50.766;2.900;2022-10-23T07:14:31;100199.75;;;18.66;64.59
60854;BME280;48554;50.766;2.900;2022-10-23T07:16:52;100193.56;;;18.65;64.80
60854;BME280;48554;50.766;2.900;2022-10-23T07:19:12;100190.63;;;18.67;64.72
60854;BME280;48554;50.766;2.900;2022-10-23T07:21:34;100202.97;;;18.68;64.81
60854;BME280;48554;50.766;2.900;2022-10-23T07:23:54;100202.69;;;18.69;64.72
60854;BME280;48554;50.766;2.900;2022-10-23T07:26:15;100193.06;;;18.68;64.82
60854;BME280;48554;50.766;2.900;2022-10-23T07:28:36;100205.94;;;18.66;64.87
60854;BME280;48554;50.766;2.900;2022-10-23T07:30:57;100192.50;;;18.66;64.91
60854;BME280;48554;50.766;2.900;2022-10-23T07:33:17;100189.03;;;18.66;64.98
60854;BME280;48554;50.766;2.900;2022-10-23T07:35:39;100172.94;;;18.66;64.79
60854;BME280;48554;50.766;2.900;2022-10-23T07:37:59;100160.84;;;18.68;64.80
60854;BME280;48554;50.766;2.900;2022-10-23T07:40:19;100184.16;;;18.68;64.75
60854;BME280;48554;50.766;2.900;2022-10-23T07:42:40;100158.44;;;18.67;64.91
60854;BME280;48554;50.766;2.900;2022-10-23T07:45:00;100150.63;;;18.65;65.02
60854;BME280;48554;50.766;2.900;2022-10-23T07:47:20;100153.31;;;18.65;64.80
60854;BME280;48554;50.766;2.900;2022-10-23T07:49:41;100132.94;;;18.64;64.99
60854;BME280;48554;50.766;2.900;2022-10-23T07:52:01;100116.03;;;18.64;65.00
60854;BME280;48554;50.766;2.900;2022-10-23T07:54:23;100115.25;;;18.63;65.05
60854;BME280;48554;50.766;2.900;2022-10-23T07:56:43;100118.44;;;18.65;64.96
60854;BME280;48554;50.766;2.900;2022-10-23T07:59:04;100112.28;;;18.65;65.00
60854;BME280;48554;50.766;2.900;2022-10-23T08:03:47;100158.69;;;18.70;64.93
60854;BME280;48554;50.766;2.900;2022-10-23T08:06:07;100136.69;;;18.73;65.53
60854;BME280;48554;50.766;2.900;2022-10-23T08:08:28;100153.59;;;18.74;65.49
60854;BME280;48554;50.766;2.900;2022-10-23T08:10:49;100141.78;;;18.75;67.52
60854;BME280;48554;50.766;2.900;2022-10-23T08:13:10;100136.69;;;18.73;69.04
60854;BME280;48554;50.766;2.900;2022-10-23T08:15:31;100109.88;;;18.73;68.69
60854;BME280;48554;50.766;2.900;2022-10-23T08:17:51;100106.09;;;18.74;67.57
60854;BME280;48554;50.766;2.900;2022-10-23T08:20:11;100110.38;;;18.70;69.33
60854;BME280;48554;50.766;2.900;2022-10-23T08:22:32;100081.97;;;18.64;70.36
60854;BME280;48554;50.766;2.900;2022-10-23T08:24:52;100056.75;;;18.60;70.33
60854;BME280;48554;50.766;2.900;2022-10-23T08:27:12;100055.16;;;18.59;70.65
60854;BME280;48554;50.766;2.900;2022-10-23T08:29:32;100034.75;;;18.58;70.26
60854;BME280;48554;50.766;2.900;2022-10-23T08:31:53;100011.44;;;18.58;69.94
60854;BME280;48554;50.766;2.900;2022-10-23T08:34:13;100004.19;;;18.59;70.71
60854;BME280;48554;50.766;2.900;2022-10-23T08:36:33;99994.50;;;18.58;69.86
60854;BME280;48554;50.766;2.900;2022-10-23T08:38:56;99977.34;;;18.59;70.08
60854;BME280;48554;50.766;2.900;2022-10-23T08:41:32;99972.53;;;18.61;69.69
60854;BME280;48554;50.766;2.900;2022-10-23T08:46:41;99991.84;;;18.63;69.11
60854;BME280;48554;50.766;2.900;2022-10-23T08:49:16;100004.16;;;18.64;69.09
60854;BME280;48554;50.766;2.900;2022-10-23T08:51:40;99999.88;;;18.63;70.07
60854;BME280;48554;50.766;2.900;2022-10-23T08:54:07;99993.44;;;18.64;69.61
60854;BME280;48554;50.766;2.900;2022-10-23T08:56:36;99985.63;;;18.63;69.08
60854;BME280;48554;50.766;2.900;2022-10-23T09:01:44;99979.22;;;18.64;68.38
60854;BME280;48554;50.766;2.900;2022-10-23T09:04:10;99984.28;;;18.65;68.57
60854;BME280;48554;50.766;2.900;2022-10-23T09:14:42;99984.31;;;18.55;68.70
60854;BME280;48554;50.766;2.900;2022-10-23T09:17:27;99986.47;;;18.53;69.73
60854;BME280;48554;50.766;2.900;2022-10-23T09:19:54;99981.09;;;18.53;69.42
60854;BME280;48554;50.766;2.900;2022-10-23T09:22:18;99957.78;;;18.58;68.23
60854;BME280;48554;50.766;2.900;2022-10-23T09:24:41;99953.75;;;18.56;68.67
60854;BME280;48554;50.766;2.900;2022-10-23T09:27:02;99958.56;;;18.59;68.73
60854;BME280;48554;50.766;2.900;2022-10-23T09:29:26;99964.50;;;18.56;68.48
60854;BME280;48554;50.766;2.900;2022-10-23T09:31:48;99965.03;;;18.48;68.57
60854;BME280;48554;50.766;2.900;2022-10-23T09:34:18;99961.81;;;18.51;68.34
60854;BME280;48554;50.766;2.900;2022-10-23T09:36:48;99970.91;;;18.55;68.30
60854;BME280;48554;50.766;2.900;2022-10-23T09:39:29;99969.31;;;18.54;67.99
60854;BME280;48554;50.766;2.900;2022-10-23T09:41:50;99966.91;;;18.47;68.46
60854;BME280;48554;50.766;2.900;2022-10-23T09:44:14;99965.59;;;18.45;68.74
60854;BME280;48554;50.766;2.900;2022-10-23T09:46:50;99979.00;;;18.45;68.65
60854;BME280;48554;50.766;2.900;2022-10-23T09:49:31;99976.06;;;18.46;68.63
60854;BME280;48554;50.766;2.900;2022-10-23T09:52:02;99976.84;;;18.47;68.58
60854;BME280;48554;50.766;2.900;2022-10-23T09:54:23;99971.47;;;18.47;68.73
60854;BME280;48554;50.766;2.900;2022-10-23T09:56:46;99971.47;;;18.47;68.59
60854;BME280;48554;50.766;2.900;2022-10-23T10:01:33;99976.84;;;18.47;68.62
60854;BME280;48554;50.766;2.900;2022-10-23T10:03:54;99973.06;;;18.48;68.32
60854;BME280;48554;50.766;2.900;2022-10-23T10:06:21;99979.25;;;18.48;68.19
60854;BME280;48554;50.766;2.900;2022-10-23T10:08:45;99980.06;;;18.49;68.62
60854;BME280;48554;50.766;2.900;2022-10-23T10:13:55;99990.78;;;18.49;68.10
60854;BME280;48554;50.766;2.900;2022-10-23T10:16:45;99977.38;;;18.49;68.31
60854;BME280;48554;50.766;2.900;2022-10-23T10:19:26;99983.81;;;18.48;68.22
60854;BME280;48554;50.766;2.900;2022-10-23T10:22:25;99973.38;;;18.46;68.93
60854;BME280;48554;50.766;2.900;2022-10-23T10:30:54;99963.41;;;18.52;68.18
60854;BME280;48554;50.766;2.900;2022-10-23T10:33:21;99960.72;;;18.52;68.53
60854;BME280;48554;50.766;2.900;2022-10-23T10:36:23;99970.38;;;18.53;68.17
60854;BME280;48554;50.766;2.900;2022-10-23T10:38:59;99972.00;;;18.54;68.43
60854;BME280;48554;50.766;2.900;2022-10-23T10:54:38;99955.03;;;18.69;67.68
60854;BME280;48554;50.766;2.900;2022-10-23T10:57:04;99942.69;;;18.73;67.66
60854;BME280;48554;50.766;2.900;2022-10-23T10:59:35;99925.50;;;18.74;66.98
60854;BME280;48554;50.766;2.900;2022-10-23T11:02:26;99939.72;;;18.74;66.99
60854;BME280;48554;50.766;2.900;2022-10-23T11:04:51;99947.53;;;18.76;67.12
60854;BME280;48554;50.766;2.900;2022-10-23T11:07:19;99955.28;;;18.77;66.87
60854;BME280;48554;50.766;2.900;2022-10-23T11:09:41;99939.19;;;18.77;66.85
60854;BME280;48554;50.766;2.900;2022-10-23T11:12:02;99919.63;;;18.77;66.87
60854;BME280;48554;50.766;2.900;2022-10-23T11:14:28;99920.16;;;18.79;66.65
60854;BME280;48554;50.766;2.900;2022-10-23T11:19:48;99901.09;;;18.80;66.77
60854;BME280;48554;50.766;2.900;2022-10-23T11:31:20;99872.09;;;18.83;66.65
60854;BME280;48554;50.766;2.900;2022-10-23T11:34:11;99861.38;;;18.83;66.77
60854;BME280;48554;50.766;2.900;2022-10-23T11:36:53;99857.06;;;18.81;66.85
60854;BME280;48554;50.766;2.900;2022-10-23T11:39:25;99850.63;;;18.83;66.89
60854;BME280;48554;50.766;2.900;2022-10-23T11:46:45;99828.06;;;18.84;66.89
60854;BME280;48554;50.766;2.900;2022-10-23T11:49:19;99820.81;;;18.84;66.91
60854;BME280;48554;50.766;2.900;2022-10-23T11:51:40;99816.25;;;18.85;66.93
60854;BME280;48554;50.766;2.900;2022-10-23T11:56:26;99821.63;;;18.85;67.02
60854;BME280;48554;50.766;2.900;2022-10-23T11:58:56;99823.25;;;18.86;66.99
60854;BME280;48554;50.766;2.900;2022-10-23T12:01:42;99828.59;;;18.86;66.96
60854;BME280;48554;50.766;2.900;2022-10-23T12:06:51;99819.47;;;18.87;67.22
60854;BME280;48554;50.766;2.900;2022-10-23T12:11:59;99807.66;;;18.88;67.35
60854;BME280;48554;50.766;2.900;2022-10-23T12:16:54;99786.69;;;18.90;67.28
60854;BME280;48554;50.766;2.900;2022-10-23T12:19:19;99788.31;;;18.91;67.23
60854;BME280;48554;50.766;2.900;2022-10-23T12:21:40;99789.91;;;18.92;67.16
60854;BME280;48554;50.766;2.900;2022-10-23T12:34:25;99775.66;;;18.96;67.22
60854;BME280;48554;50.766;2.900;2022-10-23T12:39:29;99762.75;;;18.98;67.41
60854;BME280;48554;50.766;2.900;2022-10-23T12:41:49;99772.13;;;19.01;67.58
60854;BME280;48554;50.766;2.900;2022-10-23T12:44:11;99768.38;;;19.02;67.58
60854;BME280;48554;50.766;2.900;2022-10-23T12:46:38;99764.59;;;19.03;67.51
60854;BME280;48554;50.766;2.900;2022-10-23T12:49:00;99756.53;;;19.03;67.61
60854;BME280;48554;50.766;2.900;2022-10-23T12:51:24;99771.56;;;19.04;67.70
60854;BME280;48554;50.766;2.900;2022-10-23T12:53:47;99752.75;;;19.04;67.76
60854;BME280;48554;50.766;2.900;2022-10-23T12:56:10;99753.28;;;19.06;67.86
60854;BME280;48554;50.766;2.900;2022-10-23T12:58:33;99748.72;;;19.07;67.82
60854;BME280;48554;50.766;2.900;2022-10-23T13:00:56;99744.16;;;19.07;67.82
60854;BME280;48554;50.766;2.900;2022-10-23T13:03:19;99737.72;;;19.08;67.76
60854;BME280;48554;50.766;2.900;2022-10-23T13:05:39;99741.19;;;19.09;67.80
60854;BME280;48554;50.766;2.900;2022-10-23T13:08:01;99736.59;;;19.09;67.72
60854;BME280;48554;50.766;2.900;2022-10-23T13:10:22;99736.13;;;19.07;67.87
60854;BME280;48554;50.766;2.900;2022-10-23T13:12:44;99735.03;;;19.08;67.64
60854;BME280;48554;50.766;2.900;2022-10-23T13:17:38;99733.13;;;19.09;67.66
60854;BME280;48554;50.766;2.900;2022-10-23T13:22:39;99727.75;;;19.09;67.65
60854;BME280;48554;50.766;2.900;2022-10-23T13:24:59;99725.06;;;19.09;67.66
60854;BME280;48554;50.766;2.900;2022-10-23T13:27:32;99725.88;;;19.09;67.91
60854;BME280;48554;50.766;2.900;2022-10-23T13:29:52;99713.53;;;19.08;67.68
60854;BME280;48554;50.766;2.900;2022-10-23T13:32:22;99724.28;;;19.08;67.65
60854;BME280;48554;50.766;2.900;2022-10-23T13:34:50;99722.69;;;19.07;67.71
60854;BME280;48554;50.766;2.900;2022-10-23T13:37:26;99725.38;;;19.07;67.74
60854;BME280;48554;50.766;2.900;2022-10-23T13:39:58;99718.13;;;19.08;67.63
60854;BME280;48554;50.766;2.900;2022-10-23T13:42:19;99721.88;;;19.07;67.60
60854;BME280;48554;50.766;2.900;2022-10-23T13:44:40;99714.63;;;19.07;67.44
60854;BME280;48554;50.766;2.900;2022-10-23T13:47:00;99700.97;;;19.03;68.16
60854;BME280;48554;50.766;2.900;2022-10-23T13:49:20;99692.91;;;19.03;67.57
60854;BME280;48554;50.766;2.900;2022-10-23T13:51:52;99677.59;;;19.04;67.70
60854;BME280;48554;50.766;2.900;2022-10-23T13:54:15;99681.91;;;19.05;67.70
60854;BME280;48554;50.766;2.900;2022-10-23T13:56:36;99687.28;;;19.05;67.60
60854;BME280;48554;50.766;2.900;2022-10-23T13:58:56;99677.59;;;19.04;67.53
60854;BME280;48554;50.766;2.900;2022-10-23T14:01:28;99662.59;;;19.03;67.53
60854;BME280;48554;50.766;2.900;2022-10-23T14:03:50;99674.66;;;19.06;67.51
60854;BME280;48554;50.766;2.900;2022-10-23T14:06:10;99671.44;;;19.03;67.37
60854;BME280;48554;50.766;2.900;2022-10-23T14:08:30;99669.53;;;19.04;67.46
60854;BME280;48554;50.766;2.900;2022-10-23T14:10:51;99671.16;;;19.05;67.52
60854;BME280;48554;50.766;2.900;2022-10-23T14:13:11;99658.31;;;19.02;67.53
60854;BME280;48554;50.766;2.900;2022-10-23T14:15:32;99663.69;;;19.02;67.31
60854;BME280;48554;50.766;2.900;2022-10-23T14:17:52;99658.31;;;19.02;67.42
60854;BME280;48554;50.766;2.900;2022-10-23T14:20:12;99661.00;;;19.02;67.39
60854;BME280;48554;50.766;2.900;2022-10-23T14:22:33;99661.28;;;19.00;67.40
60854;BME280;48554;50.766;2.900;2022-10-23T14:24:53;99654.81;;;19.01;67.51